createdAt,value
2023-01-13T00:00:38.286Z,9.15
2023-01-13T00:03:06.461Z,9.20
2023-01-13T00:05:34.620Z,9.22
2023-01-13T00:08:04.878Z,9.23
2023-01-13T00:10:35.289Z,9.22
2023-01-13T00:13:06.149Z,9.21
2023-01-13T00:15:34.743Z,9.25
2023-01-13T00:18:02.749Z,9.25
2023-01-13T00:20:30.752Z,9.22
2023-01-13T00:23:00.137Z,9.24
2023-01-13T00:25:28.324Z,9.27
2023-01-13T00:27:57.720Z,9.27
2023-01-13T00:30:25.698Z,9.25
2023-01-13T00:32:54.170Z,9.22
2023-01-13T00:35:22.350Z,9.19
2023-01-13T00:37:50.385Z,9.20
2023-01-13T00:40:18.860Z,9.22
2023-01-13T00:43:04.339Z,9.21
2023-01-13T00:45:34.135Z,9.15
2023-01-13T00:48:01.900Z,9.17
2023-01-13T00:50:30.245Z,9.19
2023-01-13T00:53:01.440Z,9.17
2023-01-13T00:55:33.180Z,9.25
2023-01-13T00:58:03.657Z,9.19
2023-01-13T01:00:34.188Z,9.18
2023-01-13T01:03:02.291Z,9.20
2023-01-13T01:05:30.491Z,9.21
2023-01-13T01:07:58.609Z,9.25
2023-01-13T01:10:27.136Z,9.21
2023-01-13T01:12:55.215Z,9.23
2023-01-13T01:15:23.350Z,9.24
2023-01-13T01:17:52.703Z,9.27
2023-01-13T01:20:20.856Z,9.29
2023-01-13T01:22:48.929Z,9.27
2023-01-13T01:25:17.090Z,9.30
2023-01-13T01:27:45.029Z,9.29
2023-01-13T01:30:14.831Z,9.32
2023-01-13T01:32:42.865Z,9.33
2023-01-13T01:35:12.383Z,9.30
2023-01-13T01:37:40.446Z,9.27
2023-01-13T01:40:11.702Z,9.31
2023-01-13T01:42:57.311Z,9.30
2023-01-13T01:45:30.590Z,9.30
2023-01-13T01:48:05.537Z,9.29
2023-01-13T01:50:36.025Z,9.28
2023-01-13T01:53:12.186Z,9.30
2023-01-13T01:55:41.258Z,9.30
2023-01-13T01:58:16.070Z,9.31
2023-01-13T02:00:44.248Z,9.32
2023-01-13T02:03:12.762Z,9.34
2023-01-13T02:05:42.452Z,9.35
2023-01-13T02:08:13.323Z,9.35
2023-01-13T02:10:44.460Z,9.37
2023-01-13T02:13:14.051Z,9.39
2023-01-13T02:15:56.000Z,9.35
2023-01-13T02:18:45.650Z,9.34
2023-01-13T02:22:08.565Z,9.34
2023-01-13T02:25:24.841Z,9.31
2023-01-13T02:28:21.576Z,9.38
2023-01-13T02:31:15.291Z,9.31
2023-01-13T02:34:01.963Z,9.24
2023-01-13T02:36:40.736Z,9.28
2023-01-13T02:39:20.160Z,9.28
2023-01-13T02:42:15.405Z,9.28
2023-01-13T02:44:49.689Z,9.25
2023-01-13T02:47:23.881Z,9.28
2023-01-13T02:49:59.457Z,9.27
2023-01-13T02:52:34.342Z,9.31
2023-01-13T02:55:10.025Z,9.31
2023-01-13T02:57:40.747Z,9.29
2023-01-13T03:00:14.566Z,9.30
2023-01-13T03:02:43.972Z,9.34
2023-01-13T03:05:17.411Z,9.26
2023-01-13T03:08:33.971Z,9.29
2023-01-13T03:11:08.514Z,9.27
2023-01-13T03:14:07.761Z,9.26
2023-01-13T03:17:16.778Z,9.31
2023-01-13T03:20:03.044Z,9.34
2023-01-13T03:22:39.017Z,9.32
2023-01-13T03:25:16.872Z,9.32
2023-01-13T03:27:54.573Z,9.39
2023-01-13T03:30:30.860Z,9.41
2023-01-13T03:33:06.348Z,9.41
2023-01-13T03:35:43.320Z,9.44
2023-01-13T03:38:17.051Z,9.45
2023-01-13T03:40:51.779Z,9.51
2023-01-13T03:43:45.209Z,9.47
2023-01-13T03:46:21.720Z,9.47
2023-01-13T03:48:58.840Z,9.49
2023-01-13T03:51:34.901Z,9.48
2023-01-13T03:54:09.214Z,9.52
2023-01-13T03:56:43.849Z,9.53
2023-01-13T03:59:18.469Z,9.54
2023-01-13T04:01:58.350Z,9.55
2023-01-13T04:04:35.514Z,9.56
2023-01-13T04:07:21.642Z,9.57
2023-01-13T04:09:57.187Z,9.54
2023-01-13T04:12:51.081Z,9.64
2023-01-13T04:15:22.819Z,9.57
2023-01-13T04:17:51.952Z,9.51
2023-01-13T04:20:20.094Z,9.45
2023-01-13T04:22:49.448Z,9.44
2023-01-13T04:25:17.649Z,9.35
2023-01-13T04:27:45.704Z,9.36
2023-01-13T04:30:14.416Z,9.31
2023-01-13T04:32:42.490Z,9.25
2023-01-13T04:35:10.906Z,9.22
2023-01-13T04:37:38.841Z,9.21
2023-01-13T04:40:10.442Z,9.15
2023-01-13T04:42:38.436Z,9.11
2023-01-13T04:45:07.665Z,9.15
2023-01-13T04:47:35.514Z,9.15
2023-01-13T04:50:03.474Z,9.10
2023-01-13T04:52:31.542Z,9.13
2023-01-13T04:54:59.503Z,9.15
2023-01-13T04:57:28.863Z,9.22
2023-01-13T04:59:56.804Z,9.28
2023-01-13T05:02:24.715Z,9.28
2023-01-13T05:04:52.716Z,9.26
2023-01-13T05:07:20.760Z,9.34
2023-01-13T05:09:48.713Z,9.32
2023-01-13T05:12:34.152Z,9.36
2023-01-13T05:15:21.325Z,9.45
2023-01-13T05:17:49.822Z,9.47
2023-01-13T05:20:18.789Z,9.38
2023-01-13T05:23:04.074Z,9.34
2023-01-13T05:25:32.166Z,9.08
2023-01-13T05:28:01.155Z,8.92
2023-01-13T05:30:33.042Z,8.73
2023-01-13T05:33:01.053Z,8.65
2023-01-13T05:35:31.941Z,8.62
2023-01-13T05:37:59.948Z,8.59
2023-01-13T05:40:45.502Z,8.56
2023-01-13T05:43:22.433Z,8.50
2023-01-13T05:45:56.915Z,8.42
2023-01-13T05:48:27.698Z,8.29
2023-01-13T05:50:56.105Z,8.24
2023-01-13T05:53:27.300Z,8.12
2023-01-13T05:55:55.521Z,8.09
2023-01-13T05:58:26.356Z,8.16
2023-01-13T06:01:02.120Z,8.15
2023-01-13T06:03:30.083Z,8.11
2023-01-13T06:06:01.558Z,8.13
2023-01-13T06:08:30.639Z,8.11
2023-01-13T06:10:58.898Z,8.19
2023-01-13T06:13:27.685Z,8.26
2023-01-13T06:15:59.647Z,8.24
2023-01-13T06:18:28.677Z,8.29
2023-01-13T06:20:56.817Z,8.24
2023-01-13T06:23:25.281Z,8.26
2023-01-13T06:26:03.926Z,8.29
2023-01-13T06:28:33.173Z,8.30
2023-01-13T06:31:08.477Z,8.27
2023-01-13T06:33:40.775Z,8.25
2023-01-13T06:36:17.388Z,8.27
2023-01-13T06:38:51.037Z,8.27
2023-01-13T06:41:40.823Z,8.32
2023-01-13T06:44:07.789Z,8.28
2023-01-13T06:46:37.342Z,8.32
2023-01-13T06:49:08.062Z,8.34
2023-01-13T06:51:36.165Z,8.33
2023-01-13T06:54:04.290Z,8.34
2023-01-13T06:56:32.301Z,8.31
2023-01-13T06:59:00.234Z,8.31
2023-01-13T07:01:28.279Z,8.31
2023-01-13T07:03:58.134Z,8.38
2023-01-13T07:06:26.109Z,8.39
2023-01-13T07:08:54.072Z,8.45
2023-01-13T07:11:22.055Z,8.45
2023-01-13T07:14:07.502Z,8.46
2023-01-13T07:16:35.617Z,8.47
2023-01-13T07:19:06.116Z,8.67
2023-01-13T07:21:36.433Z,8.60
2023-01-13T07:24:07.225Z,8.56
2023-01-13T07:26:35.201Z,8.53
2023-01-13T07:29:03.248Z,8.65
2023-01-13T07:31:31.283Z,8.68
2023-01-13T07:33:59.911Z,8.76
2023-01-13T07:36:29.303Z,8.81
2023-01-13T07:38:58.987Z,8.77
2023-01-13T07:41:44.447Z,8.76
2023-01-13T07:44:12.431Z,8.69
2023-01-13T07:46:42.878Z,8.68
2023-01-13T07:49:10.969Z,8.72
2023-01-13T07:51:41.267Z,8.71
2023-01-13T07:54:09.257Z,8.67
2023-01-13T07:56:37.243Z,8.68
2023-01-13T07:59:05.182Z,8.64
2023-01-13T08:01:33.345Z,8.74
2023-01-13T08:04:01.468Z,8.70
2023-01-13T08:06:29.471Z,8.77
2023-01-13T08:08:59.755Z,8.78
2023-01-13T08:11:29.949Z,8.84
2023-01-13T08:13:58.464Z,8.86
2023-01-13T08:16:26.843Z,8.93
2023-01-13T08:18:54.971Z,8.93
2023-01-13T08:21:22.896Z,8.92
2023-01-13T08:23:50.857Z,8.95
2023-01-13T08:26:20.460Z,8.97
2023-01-13T08:28:48.416Z,8.87
2023-01-13T08:31:19.778Z,8.90
2023-01-13T08:33:47.877Z,8.93
2023-01-13T08:36:16.287Z,8.88
2023-01-13T08:38:44.291Z,8.84
2023-01-13T08:41:15.292Z,8.87
2023-01-13T08:43:44.657Z,8.81
2023-01-13T08:46:13.103Z,8.82
2023-01-13T08:48:41.138Z,8.81
2023-01-13T08:51:10.878Z,8.85
2023-01-13T08:53:38.802Z,8.83
2023-01-13T08:56:11.558Z,8.84
2023-01-13T08:58:40.668Z,8.83
2023-01-13T09:01:14.786Z,8.85
2023-01-13T09:03:42.838Z,8.87
2023-01-13T09:06:16.966Z,8.83
2023-01-13T09:08:45.169Z,8.83
2023-01-13T09:11:37.590Z,8.87
2023-01-13T09:14:07.508Z,8.73
2023-01-13T09:16:36.819Z,8.78
2023-01-13T09:19:10.864Z,8.79
2023-01-13T09:21:38.908Z,8.85
2023-01-13T09:24:13.441Z,8.87
2023-01-13T09:26:41.432Z,8.89
2023-01-13T09:29:09.503Z,8.91
2023-01-13T09:31:38.987Z,8.92
2023-01-13T09:34:30.008Z,8.93
2023-01-13T09:36:58.021Z,8.90
2023-01-13T09:39:29.728Z,8.89
2023-01-13T09:42:22.292Z,8.91
2023-01-13T09:44:59.275Z,8.80
2023-01-13T09:47:34.915Z,8.79
2023-01-13T09:50:23.018Z,8.69
2023-01-13T09:52:53.701Z,8.78
2023-01-13T09:55:33.878Z,8.85
2023-01-13T09:58:08.846Z,8.91
2023-01-13T10:00:42.117Z,8.96
2023-01-13T10:03:22.967Z,8.97
2023-01-13T10:06:00.436Z,9.08
2023-01-13T10:08:32.962Z,9.09
2023-01-13T10:11:24.952Z,9.02
2023-01-13T10:13:59.716Z,9.03
2023-01-13T10:16:42.223Z,9.04
2023-01-13T10:19:22.668Z,9.04
2023-01-13T10:22:33.718Z,8.98
2023-01-13T10:25:33.082Z,9.00
2023-01-13T10:28:11.093Z,8.98
2023-01-13T10:30:49.907Z,8.96
2023-01-13T10:33:21.562Z,8.96
2023-01-13T10:35:56.552Z,8.99
2023-01-13T10:38:31.530Z,9.02
2023-01-13T10:41:01.890Z,9.01
2023-01-13T10:43:31.667Z,9.01
2023-01-13T10:46:04.529Z,9.03
2023-01-13T10:48:40.520Z,8.97
2023-01-13T10:51:23.839Z,8.96
2023-01-13T10:53:56.535Z,8.98
2023-01-13T10:56:29.364Z,9.00
2023-01-13T10:59:23.339Z,9.10
2023-01-13T11:02:13.105Z,9.16
2023-01-13T11:05:04.850Z,9.15
2023-01-13T11:07:39.424Z,9.10
2023-01-13T11:10:23.511Z,9.09
2023-01-13T11:13:14.603Z,9.19
2023-01-13T11:15:53.725Z,9.32
2023-01-13T11:18:36.676Z,9.25
2023-01-13T11:21:23.270Z,9.25
2023-01-13T11:24:05.647Z,9.18
2023-01-13T11:26:44.914Z,9.17
2023-01-13T11:29:21.718Z,9.11
2023-01-13T11:31:55.364Z,9.16
2023-01-13T11:34:33.879Z,9.14
2023-01-13T11:37:09.766Z,9.13
2023-01-13T11:39:55.445Z,9.20
2023-01-13T11:42:31.362Z,9.22
2023-01-13T11:45:17.704Z,9.14
2023-01-13T11:47:53.526Z,9.22
2023-01-13T11:50:34.136Z,9.23
2023-01-13T11:53:33.327Z,9.25
2023-01-13T11:56:24.524Z,9.34
2023-01-13T11:59:28.632Z,9.31
2023-01-13T12:02:23.283Z,9.36
2023-01-13T12:05:05.795Z,9.35
2023-01-13T12:07:45.298Z,9.33
2023-01-13T12:10:29.909Z,9.35
2023-01-13T12:13:18.627Z,9.37
2023-01-13T12:16:08.725Z,9.54
2023-01-13T12:19:18.827Z,9.69
2023-01-13T12:22:04.495Z,9.74
2023-01-13T12:24:42.315Z,9.61
2023-01-13T12:27:21.965Z,9.62
2023-01-13T12:29:55.329Z,9.76
2023-01-13T12:32:35.160Z,9.84
2023-01-13T12:35:24.486Z,9.92
2023-01-13T12:38:02.574Z,10.16
2023-01-13T12:40:48.649Z,10.17
2023-01-13T12:43:38.035Z,10.12
2023-01-13T12:46:57.113Z,9.97
2023-01-13T12:49:29.029Z,10.08
2023-01-13T12:52:13.919Z,10.02
2023-01-13T12:55:08.825Z,10.14
2023-01-13T12:57:39.556Z,10.02
2023-01-13T13:00:17.064Z,9.96
2023-01-13T13:03:30.190Z,9.80
2023-01-13T13:06:14.959Z,9.75
2023-01-13T13:09:04.400Z,9.69
2023-01-13T13:12:17.148Z,9.56
2023-01-13T13:15:19.300Z,9.54
2023-01-13T13:18:08.631Z,9.44
2023-01-13T13:21:03.743Z,9.40
2023-01-13T13:24:02.967Z,9.39
2023-01-13T13:26:46.745Z,9.56
2023-01-13T13:29:54.119Z,9.57
2023-01-13T13:32:56.923Z,9.60
2023-01-13T13:35:51.885Z,9.59
2023-01-13T13:39:00.023Z,9.58
2023-01-13T13:41:46.305Z,9.66
2023-01-13T13:44:38.746Z,9.59
2023-01-13T13:47:08.293Z,9.60
2023-01-13T13:49:41.592Z,9.62
2023-01-13T13:52:19.817Z,9.61
2023-01-13T13:54:52.677Z,9.54
2023-01-13T13:57:28.146Z,9.50
2023-01-13T14:00:00.213Z,9.46
2023-01-13T14:02:32.355Z,9.50
2023-01-13T14:05:20.383Z,9.45
2023-01-13T14:07:51.423Z,9.50
2023-01-13T14:10:25.779Z,9.46
2023-01-13T14:12:53.871Z,9.45
2023-01-13T14:15:33.227Z,9.40
2023-01-13T14:18:05.233Z,9.40
2023-01-13T14:20:36.845Z,9.42
2023-01-13T14:23:06.717Z,9.42
2023-01-13T14:25:39.673Z,9.44
2023-01-13T14:28:28.652Z,9.40
2023-01-13T14:30:58.230Z,9.41
2023-01-13T14:33:38.812Z,9.40
2023-01-13T14:36:20.773Z,9.42
2023-01-13T14:39:12.483Z,9.45
2023-01-13T14:41:50.717Z,9.40
2023-01-13T14:44:27.986Z,9.47
2023-01-13T14:46:59.939Z,9.42
2023-01-13T14:49:38.707Z,9.44
2023-01-13T14:52:16.442Z,9.43
2023-01-13T14:54:52.722Z,9.46
2023-01-13T14:57:32.426Z,9.47
2023-01-13T15:00:19.709Z,9.40
2023-01-13T15:02:50.893Z,9.41
2023-01-13T15:05:36.238Z,9.41
2023-01-13T15:08:20.545Z,9.39
2023-01-13T15:10:52.724Z,9.35
2023-01-13T15:13:35.288Z,9.45
2023-01-13T15:16:07.356Z,9.39
2023-01-13T15:18:39.952Z,9.36
2023-01-13T15:21:09.191Z,9.39
2023-01-13T15:23:39.931Z,9.35
2023-01-13T15:26:19.874Z,9.32
2023-01-13T15:28:50.185Z,9.33
2023-01-13T15:31:18.706Z,9.32
2023-01-13T15:33:46.776Z,9.32
2023-01-13T15:36:27.204Z,9.28
2023-01-13T15:38:55.770Z,9.26
2023-01-13T15:41:38.027Z,9.27
2023-01-13T15:44:24.901Z,9.22
2023-01-13T15:46:53.584Z,9.21
2023-01-13T15:49:34.583Z,9.22
2023-01-13T15:52:04.249Z,9.15
2023-01-13T15:54:32.612Z,9.15
2023-01-13T15:57:00.676Z,9.14
2023-01-13T15:59:30.047Z,9.10
2023-01-13T16:01:58.062Z,9.09
2023-01-13T16:04:26.071Z,9.06
2023-01-13T16:06:55.260Z,9.03
2023-01-13T16:09:24.120Z,9.03
2023-01-13T16:11:54.093Z,8.98
2023-01-13T16:14:24.229Z,8.99
2023-01-13T16:16:55.784Z,9.04
2023-01-13T16:19:24.161Z,8.96
2023-01-13T16:21:56.478Z,8.92
2023-01-13T16:24:25.539Z,8.92
2023-01-13T16:26:55.575Z,8.93
2023-01-13T16:29:24.302Z,8.91
2023-01-13T16:31:55.220Z,8.85
2023-01-13T16:34:24.444Z,8.82
2023-01-13T16:36:52.508Z,8.76
2023-01-13T16:39:22.997Z,8.76
2023-01-13T16:41:51.959Z,8.75
2023-01-13T16:44:21.387Z,8.74
2023-01-13T16:46:51.522Z,8.77
2023-01-13T16:49:20.917Z,8.74
2023-01-13T16:51:48.827Z,8.73
2023-01-13T16:54:16.700Z,8.78
2023-01-13T16:56:45.188Z,8.78
2023-01-13T16:59:15.114Z,8.77
2023-01-13T17:01:45.772Z,8.74
2023-01-13T17:04:17.399Z,8.72
2023-01-13T17:06:56.900Z,8.68
2023-01-13T17:09:28.550Z,8.71
2023-01-13T17:11:57.701Z,8.75
2023-01-13T17:14:27.185Z,8.69
2023-01-13T17:17:00.552Z,8.68
2023-01-13T17:19:28.719Z,8.66
2023-01-13T17:21:58.103Z,8.64
2023-01-13T17:24:28.695Z,8.63
2023-01-13T17:26:57.450Z,8.45
2023-01-13T17:29:27.633Z,8.33
2023-01-13T17:31:56.199Z,8.33
2023-01-13T17:34:24.228Z,8.32
2023-01-13T17:36:52.353Z,8.35
2023-01-13T17:39:25.153Z,8.34
2023-01-13T17:41:55.836Z,8.32
2023-01-13T17:44:24.283Z,8.35
2023-01-13T17:46:52.312Z,8.43
2023-01-13T17:49:22.009Z,8.32
2023-01-13T17:51:51.403Z,8.25
2023-01-13T17:54:21.072Z,8.27
2023-01-13T17:56:49.159Z,8.28
2023-01-13T17:59:20.226Z,8.28
2023-01-13T18:01:50.708Z,8.31
2023-01-13T18:04:28.708Z,8.28
2023-01-13T18:06:59.863Z,8.32
2023-01-13T18:09:36.521Z,8.37
2023-01-13T18:12:12.668Z,8.40
2023-01-13T18:14:48.389Z,8.48
2023-01-13T18:17:36.984Z,8.39
2023-01-13T18:20:39.402Z,8.37
2023-01-13T18:23:39.610Z,8.33
2023-01-13T18:26:55.576Z,8.24
2023-01-13T18:29:27.739Z,8.21
2023-01-13T18:32:02.321Z,8.22
2023-01-13T18:34:46.007Z,8.23
2023-01-13T18:37:26.608Z,8.22
2023-01-13T18:39:54.867Z,8.29
2023-01-13T18:42:45.904Z,8.25
2023-01-13T18:45:18.315Z,8.32
2023-01-13T18:47:54.337Z,8.39
2023-01-13T18:50:31.530Z,8.43
2023-01-13T18:53:04.684Z,8.41
2023-01-13T18:55:32.733Z,8.37
2023-01-13T18:58:02.287Z,8.31
2023-01-13T19:00:36.321Z,8.29
2023-01-13T19:05:35.566Z,8.29
2023-01-13T19:08:03.505Z,8.31
2023-01-13T19:10:32.501Z,8.36
2023-01-13T19:13:02.513Z,8.41
2023-01-13T19:15:31.117Z,8.38
2023-01-13T19:17:59.231Z,8.29
2023-01-13T19:20:27.325Z,8.28
2023-01-13T19:22:55.366Z,8.28
2023-01-13T19:25:23.349Z,8.30
2023-01-13T19:27:51.296Z,8.32
2023-01-13T19:30:21.027Z,8.31
2023-01-13T19:32:48.792Z,8.31
2023-01-13T19:35:20.031Z,8.33
2023-01-13T19:37:47.919Z,8.35
2023-01-13T19:40:16.743Z,8.35
2023-01-13T19:43:02.923Z,8.33
2023-01-13T19:45:35.162Z,8.36
2023-01-13T19:48:05.319Z,8.33
2023-01-13T19:50:38.538Z,8.33
2023-01-13T19:53:07.347Z,8.33
2023-01-13T19:55:35.435Z,8.30
2023-01-13T19:58:03.854Z,8.24
2023-01-13T20:00:33.348Z,8.21
2023-01-13T20:03:03.477Z,8.20
2023-01-13T20:05:31.934Z,8.15
2023-01-13T20:07:59.917Z,8.15
2023-01-13T20:10:30.349Z,8.12
2023-01-13T20:12:58.392Z,8.12
2023-01-13T20:15:26.464Z,8.03
2023-01-13T20:17:57.295Z,7.97
2023-01-13T20:20:27.937Z,8.01
2023-01-13T20:22:55.937Z,8.03
2023-01-13T20:25:24.163Z,8.01
2023-01-13T20:27:52.863Z,8.03
2023-01-13T20:30:21.074Z,8.03
2023-01-13T20:32:49.248Z,8.12
2023-01-13T20:35:18.855Z,8.21
2023-01-13T20:37:46.860Z,8.03
2023-01-13T20:40:17.875Z,8.06
2023-01-13T20:42:45.291Z,8.02
2023-01-13T20:45:20.721Z,8.00
2023-01-13T20:47:49.177Z,7.97
2023-01-13T20:50:18.874Z,7.96
2023-01-13T20:52:47.335Z,7.97
2023-01-13T20:55:15.898Z,7.95
2023-01-13T20:57:48.749Z,7.99
2023-01-13T21:00:18.203Z,7.93
2023-01-13T21:02:46.284Z,7.93
2023-01-13T21:05:14.309Z,7.96
2023-01-13T21:07:43.639Z,7.99
2023-01-13T21:10:12.364Z,7.92
2023-01-13T21:12:54.272Z,7.91
2023-01-13T21:15:22.861Z,7.89
2023-01-13T21:18:10.506Z,7.88
2023-01-13T21:20:40.117Z,7.91
2023-01-13T21:23:10.830Z,7.91
2023-01-13T21:25:40.059Z,7.87
2023-01-13T21:28:11.201Z,7.82
2023-01-13T21:30:39.999Z,7.76
2023-01-13T21:33:08.120Z,7.78
2023-01-13T21:35:39.923Z,7.78
2023-01-13T21:38:11.319Z,7.74
2023-01-13T21:40:39.271Z,7.72
2023-01-13T21:43:24.019Z,7.67
2023-01-13T21:46:09.542Z,7.64
2023-01-13T21:48:37.587Z,7.68
2023-01-13T21:51:05.845Z,7.70
2023-01-13T21:53:35.224Z,7.75
2023-01-13T21:56:03.539Z,7.77
2023-01-13T21:58:31.584Z,7.78
2023-01-13T22:01:03.814Z,7.72
2023-01-13T22:03:54.587Z,7.72
2023-01-13T22:06:22.970Z,7.68
2023-01-13T22:08:53.874Z,7.62
2023-01-13T22:11:21.940Z,7.65
2023-01-13T22:14:09.298Z,7.66
2023-01-13T22:16:41.572Z,7.60
2023-01-13T22:19:12.444Z,7.66
2023-01-13T22:21:40.708Z,7.65
2023-01-13T22:24:10.902Z,7.62
2023-01-13T22:26:39.206Z,7.61
2023-01-13T22:29:07.191Z,7.58
2023-01-13T22:31:38.943Z,7.59
2023-01-13T22:34:06.962Z,7.63
2023-01-13T22:36:34.911Z,7.61
2023-01-13T22:39:02.911Z,7.67
2023-01-13T22:41:32.305Z,7.72
2023-01-13T22:44:00.259Z,7.72
2023-01-13T22:46:28.184Z,7.67
2023-01-13T22:48:56.136Z,7.67
2023-01-13T22:51:24.247Z,7.67
2023-01-13T22:53:52.214Z,7.71
2023-01-13T22:56:25.073Z,7.63
2023-01-13T22:58:56.718Z,7.65
2023-01-13T23:01:27.561Z,7.67
2023-01-13T23:03:55.834Z,7.74
2023-01-13T23:06:26.816Z,7.71
2023-01-13T23:08:55.571Z,7.70
2023-01-13T23:11:29.458Z,7.69
2023-01-13T23:14:04.820Z,7.70
2023-01-13T23:16:36.613Z,7.64
2023-01-13T23:19:06.036Z,7.60
2023-01-13T23:21:37.329Z,7.63
2023-01-13T23:24:07.416Z,7.59
2023-01-13T23:26:37.582Z,7.60
2023-01-13T23:29:09.584Z,7.61
2023-01-13T23:31:37.589Z,7.63
2023-01-13T23:34:05.647Z,7.58
2023-01-13T23:36:36.797Z,7.63
2023-01-13T23:39:05.076Z,7.63
2023-01-13T23:41:33.007Z,7.62
2023-01-13T23:44:02.175Z,7.55
2023-01-13T23:46:33.779Z,7.53
2023-01-13T23:49:03.477Z,7.51
2023-01-13T23:51:31.736Z,7.51
2023-01-13T23:54:01.449Z,7.51
2023-01-13T23:56:32.371Z,7.46
2023-01-13T23:59:04.419Z,7.40
